Time;durP1;ratioP1;P1;durP2;ratioP2;P2;SDS_P1;SDS_P2;PMS_P1;PMS_P2;Temp;Humidity;BMP_temperature;BMP_pressure;BME280_temperature;BME280_humidity;BME280_pressure;Samples;Min_cycle;Max_cycle;Signal;HPM_P1;HPM_P2
2019/10/19 00:02:08;;;;;;;2.31;2.11;;;;;;;20.19;58.70;100071.69;;;;-50
2019/10/19 00:05:07;;;;;;;2.37;2.17;;;;;;;20.18;58.76;100077.95;;;;-50
2019/10/19 00:08:07;;;;;;;2.30;1.99;;;;;;;20.18;58.77;100087.34;;;;-50
2019/10/19 00:11:07;;;;;;;2.32;2.11;;;;;;;20.18;58.74;100090.09;;;;-50
2019/10/19 00:14:07;;;;;;;2.98;2.07;;;;;;;20.18;58.77;100086.58;;;;-50
2019/10/19 00:17:07;;;;;;;2.27;2.05;;;;;;;20.17;58.76;100091.50;;;;-50
2019/10/19 00:20:10;;;;;;;3.38;2.25;;;;;;;20.16;58.75;100081.07;;;;-50
2019/10/19 00:25:07;;;;;;;2.40;2.20;;;;;;;20.17;58.77;100074.63;;;;-50
2019/10/19 00:28:07;;;;;;;2.55;2.17;;;;;;;20.15;58.75;100071.81;;;;-50
2019/10/19 00:31:07;;;;;;;2.37;2.13;;;;;;;20.16;58.78;100070.30;;;;-50
2019/10/19 00:34:07;;;;;;;2.39;2.19;;;;;;;20.15;58.73;100061.42;;;;-50
2019/10/19 00:37:07;;;;;;;2.54;2.15;;;;;;;20.13;58.77;100057.33;;;;-50
2019/10/19 00:40:07;;;;;;;3.09;2.07;;;;;;;20.14;58.73;100057.86;;;;-47
2019/10/19 00:43:07;;;;;;;2.19;1.98;;;;;;;20.14;58.76;100058.94;;;;-47
2019/10/19 00:46:07;;;;;;;2.20;2.00;;;;;;;20.13;58.80;100047.77;;;;-47
2019/10/19 00:49:07;;;;;;;2.30;2.10;;;;;;;20.13;58.78;100033.92;;;;-47
2019/10/19 00:52:07;;;;;;;2.20;2.00;;;;;;;20.13;58.75;100029.16;;;;-47
2019/10/19 00:55:07;;;;;;;2.82;2.08;;;;;;;20.13;58.74;100030.73;;;;-58
2019/10/19 00:58:07;;;;;;;2.11;1.91;;;;;;;20.13;58.76;100036.20;;;;-57
2019/10/19 01:02:07;;;;;;;2.20;2.00;;;;;;;20.13;58.75;100045.75;;;;-58
2019/10/19 01:05:07;;;;;;;2.07;1.88;;;;;;;20.12;58.81;100041.43;;;;-58
2019/10/19 01:08:07;;;;;;;2.21;2.00;;;;;;;20.11;58.76;100043.41;;;;-58
2019/10/19 01:11:07;;;;;;;2.30;2.03;;;;;;;20.11;58.80;100049.27;;;;-57
2019/10/19 01:14:07;;;;;;;2.33;2.13;;;;;;;20.10;58.77;100049.84;;;;-58
2019/10/19 01:17:07;;;;;;;2.35;2.01;;;;;;;20.10;58.80;100048.67;;;;-58
2019/10/19 01:20:07;;;;;;;2.55;2.14;;;;;;;20.09;58.80;100034.38;;;;-58
2019/10/19 01:23:07;;;;;;;2.23;1.99;;;;;;;20.10;58.77;99998.78;;;;-57
2019/10/19 01:26:07;;;;;;;2.52;1.91;;;;;;;20.09;58.76;100007.56;;;;-57
2019/10/19 01:29:07;;;;;;;2.29;1.95;;;;;;;20.09;58.82;100031.37;;;;-58
2019/10/19 01:32:07;;;;;;;2.30;2.10;;;;;;;20.08;58.79;100036.09;;;;-58
2019/10/19 01:35:07;;;;;;;2.12;1.98;;;;;;;20.08;58.81;100039.28;;;;-57
2019/10/19 01:38:07;;;;;;;2.25;2.05;;;;;;;20.08;58.79;100047.83;;;;-58
2019/10/19 01:41:07;;;;;;;2.19;1.99;;;;;;;20.07;58.81;100044.88;;;;-58
2019/10/19 01:44:07;;;;;;;2.06;1.86;;;;;;;20.08;58.80;100048.77;;;;-58
2019/10/19 01:47:07;;;;;;;2.08;1.88;;;;;;;20.08;58.81;100050.77;;;;-58
2019/10/19 01:50:07;;;;;;;2.14;1.94;;;;;;;20.06;58.80;100042.42;;;;-58
2019/10/19 01:53:07;;;;;;;2.12;1.91;;;;;;;20.06;58.79;100043.94;;;;-58
2019/10/19 01:56:07;;;;;;;2.10;1.92;;;;;;;20.06;58.75;100036.35;;;;-57
2019/10/19 01:59:07;;;;;;;2.19;2.00;;;;;;;20.06;58.79;100020.20;;;;-57
2019/10/19 02:03:23;;;;;;;2.13;1.93;;;;;;;20.04;58.82;99997.66;;;;-58
2019/10/19 02:05:15;;;;;;;2.29;1.81;;;;;;;20.05;58.79;99980.77;;;;-58
2019/10/19 02:08:07;;;;;;;2.04;1.85;;;;;;;20.05;58.78;99976.24;;;;-58
2019/10/19 02:11:07;;;;;;;1.98;1.88;;;;;;;20.05;58.77;99993.58;;;;-58
2019/10/19 02:14:07;;;;;;;2.04;1.89;;;;;;;20.03;58.86;99995.45;;;;-58
2019/10/19 02:17:07;;;;;;;2.11;1.95;;;;;;;20.03;58.83;100013.22;;;;-58
2019/10/19 02:20:08;;;;;;;2.16;1.98;;;;;;;20.03;58.75;100015.91;;;;-58
2019/10/19 02:23:07;;;;;;;2.13;1.93;;;;;;;20.04;58.79;100018.69;;;;-58
2019/10/19 02:26:07;;;;;;;2.13;1.94;;;;;;;20.04;58.77;100024.22;;;;-58
2019/10/19 02:29:07;;;;;;;2.03;1.84;;;;;;;20.03;58.77;100024.22;;;;-57
2019/10/19 02:32:07;;;;;;;2.47;2.01;;;;;;;20.03;58.77;100022.27;;;;-58
2019/10/19 02:35:07;;;;;;;2.10;1.90;;;;;;;20.03;58.75;100022.67;;;;-57
2019/10/19 02:38:07;;;;;;;2.10;1.90;;;;;;;20.02;58.80;100023.41;;;;-58
2019/10/19 02:41:07;;;;;;;1.89;1.79;;;;;;;20.02;58.79;100018.55;;;;-58
2019/10/19 02:44:07;;;;;;;2.18;1.80;;;;;;;20.02;58.85;100011.41;;;;-57
2019/10/19 02:47:07;;;;;;;2.38;1.89;;;;;;;20.01;58.82;100013.58;;;;-58
2019/10/19 02:50:07;;;;;;;1.95;1.80;;;;;;;20.01;58.77;100009.23;;;;-58
2019/10/19 02:53:07;;;;;;;2.09;1.89;;;;;;;20.01;58.78;100008.28;;;;-58
2019/10/19 02:56:07;;;;;;;1.97;1.87;;;;;;;20.01;58.79;100011.98;;;;-58
2019/10/19 02:59:07;;;;;;;2.21;1.92;;;;;;;20.00;58.81;100003.39;;;;-58
2019/10/19 03:03:07;;;;;;;2.06;1.86;;;;;;;20.00;58.83;99988.23;;;;-57
2019/10/19 03:06:07;;;;;;;2.04;1.83;;;;;;;20.00;58.82;99991.49;;;;-57
2019/10/19 03:09:07;;;;;;;2.14;1.90;;;;;;;20.00;58.79;99992.50;;;;-57
2019/10/19 03:12:07;;;;;;;2.25;2.05;;;;;;;20.00;58.80;99989.31;;;;-58
2019/10/19 03:15:07;;;;;;;1.91;1.74;;;;;;;20.00;58.84;99991.32;;;;-58
2019/10/19 03:18:07;;;;;;;1.73;1.63;;;;;;;19.99;58.82;99979.39;;;;-58
2019/10/19 03:21:07;;;;;;;2.29;1.80;;;;;;;19.99;58.80;99973.35;;;;-58
2019/10/19 03:24:07;;;;;;;2.19;1.81;;;;;;;19.99;58.79;99974.86;;;;-58
2019/10/19 03:27:09;;;;;;;2.05;1.87;;;;;;;19.99;58.82;99968.05;;;;-58
2019/10/19 03:31:04;;;;;;;1.95;1.80;;;;;;;19.99;58.79;99959.61;;;;-58
2019/10/19 03:34:33;;;;;;;1.89;1.79;;;;;;;19.99;58.79;99935.88;;;;-58
2019/10/19 03:37:08;;;;;;;2.29;1.80;;;;;;;19.98;58.80;99920.39;;;;-58
2019/10/19 03:40:07;;;;;;;1.80;1.70;;;;;;;19.98;58.74;99931.72;;;;-57
2019/10/19 03:43:07;;;;;;;1.95;1.85;;;;;;;19.98;58.79;99931.22;;;;-58
2019/10/19 03:46:07;;;;;;;1.83;1.65;;;;;;;19.97;58.77;99930.88;;;;-58
2019/10/19 03:49:07;;;;;;;1.82;1.72;;;;;;;19.97;58.81;99921.73;;;;-58
2019/10/19 03:52:07;;;;;;;1.82;1.70;;;;;;;19.97;58.80;99917.17;;;;-58
2019/10/19 03:55:07;;;;;;;1.83;1.73;;;;;;;19.97;58.82;99905.81;;;;-57
2019/10/19 03:58:07;;;;;;;1.80;1.70;;;;;;;19.96;58.80;99909.80;;;;-50
2019/10/19 04:01:07;;;;;;;2.05;1.76;;;;;;;19.96;58.80;99948.14;;;;-50
2019/10/19 04:04:07;;;;;;;1.84;1.73;;;;;;;19.96;58.83;99958.91;;;;-50
2019/10/19 04:07:07;;;;;;;1.89;1.79;;;;;;;19.96;58.81;99954.38;;;;-51
2019/10/19 04:10:07;;;;;;;1.80;1.70;;;;;;;19.96;58.83;99955.34;;;;-50
2019/10/19 04:13:07;;;;;;;1.81;1.71;;;;;;;19.95;58.85;99956.69;;;;-50
2019/10/19 04:19:07;;;;;;;2.09;1.81;;;;;;;19.96;58.81;99945.97;;;;-50
2019/10/19 04:22:07;;;;;;;1.80;1.70;;;;;;;19.95;58.79;99942.91;;;;-50
2019/10/19 04:25:08;;;;;;;2.21;1.68;;;;;;;19.94;58.79;99925.82;;;;-50
2019/10/19 04:28:12;;;;;;;2.20;1.73;;;;;;;19.95;58.83;99927.50;;;;-50
2019/10/19 04:31:07;;;;;;;1.77;1.67;;;;;;;19.94;58.82;99929.34;;;;-50
2019/10/19 04:34:07;;;;;;;2.04;1.80;;;;;;;19.93;58.85;99920.52;;;;-50
2019/10/19 04:37:07;;;;;;;1.70;1.60;;;;;;;19.94;58.82;99916.27;;;;-50
2019/10/19 04:40:07;;;;;;;1.77;1.67;;;;;;;19.94;58.82;99907.15;;;;-50
2019/10/19 04:43:07;;;;;;;2.14;1.75;;;;;;;19.95;58.77;99920.83;;;;-50
2019/10/19 04:46:07;;;;;;;1.78;1.68;;;;;;;19.95;58.77;99926.59;;;;-50
2019/10/19 04:49:07;;;;;;;1.73;1.63;;;;;;;19.96;58.74;99934.09;;;;-51
2019/10/19 04:52:07;;;;;;;1.70;1.60;;;;;;;19.96;58.74;99924.37;;;;-50
2019/10/19 04:55:07;;;;;;;1.69;1.59;;;;;;;19.98;58.65;99914.29;;;;-50
2019/10/19 04:58:07;;;;;;;1.75;1.65;;;;;;;20.00;58.57;99929.70;;;;-50
2019/10/19 05:01:07;;;;;;;1.84;1.71;;;;;;;20.00;58.51;99933.83;;;;-51
2019/10/19 05:04:07;;;;;;;1.75;1.65;;;;;;;20.03;58.45;99898.73;;;;-50
2019/10/19 05:07:07;;;;;;;1.70;1.60;;;;;;;20.05;58.43;99880.97;;;;-50
2019/10/19 05:10:07;;;;;;;1.78;1.68;;;;;;;20.09;58.38;99883.84;;;;-57
2019/10/19 05:13:07;;;;;;;1.69;1.59;;;;;;;20.11;58.48;99889.28;;;;-50
2019/10/19 05:16:07;;;;;;;1.81;1.71;;;;;;;20.14;58.49;99891.05;;;;-57
2019/10/19 05:19:07;;;;;;;2.02;1.70;;;;;;;20.17;58.49;99890.78;;;;-58
2019/10/19 05:22:07;;;;;;;1.77;1.63;;;;;;;20.20;58.59;99884.95;;;;-57
2019/10/19 05:25:07;;;;;;;1.87;1.77;;;;;;;20.23;58.62;99882.19;;;;-50
2019/10/19 05:28:07;;;;;;;1.69;1.59;;;;;;;20.25;58.66;99879.41;;;;-58
2019/10/19 05:31:07;;;;;;;1.63;1.53;;;;;;;20.28;58.68;99900.63;;;;-58
2019/10/19 05:34:07;;;;;;;2.00;1.58;;;;;;;20.30;58.67;99884.02;;;;-58
2019/10/19 05:37:07;;;;;;;1.66;1.56;;;;;;;20.33;58.77;99863.89;;;;-50
2019/10/19 05:40:07;;;;;;;1.70;1.60;;;;;;;20.34;58.78;99853.19;;;;-50
2019/10/19 05:43:07;;;;;;;1.69;1.59;;;;;;;20.38;58.73;99849.36;;;;-50
2019/10/19 05:46:07;;;;;;;1.61;1.51;;;;;;;20.39;58.76;99834.80;;;;-50
2019/10/19 05:49:11;;;;;;;2.11;1.64;;;;;;;20.41;58.74;99834.59;;;;-50
2019/10/19 05:55:07;;;;;;;1.65;1.51;;;;;;;20.44;58.81;99843.51;;;;-50
2019/10/19 05:58:07;;;;;;;1.60;1.50;;;;;;;20.45;58.74;99871.78;;;;-50
2019/10/19 06:01:07;;;;;;;1.63;1.53;;;;;;;20.46;58.74;99899.99;;;;-50
2019/10/19 06:04:07;;;;;;;1.59;1.49;;;;;;;20.48;58.75;99903.31;;;;-50
2019/10/19 06:07:07;;;;;;;1.67;1.57;;;;;;;20.48;58.69;99894.69;;;;-50
2019/10/19 06:10:07;;;;;;;1.60;1.50;;;;;;;20.48;58.73;99905.19;;;;-58
2019/10/19 06:13:07;;;;;;;2.44;1.53;;;;;;;20.48;58.65;99906.30;;;;-50
2019/10/19 06:16:07;;;;;;;1.59;1.49;;;;;;;20.49;58.62;99909.34;;;;-50
2019/10/19 06:19:07;;;;;;;1.61;1.51;;;;;;;20.50;58.62;99908.17;;;;-50
2019/10/19 06:22:07;;;;;;;1.59;1.49;;;;;;;20.51;58.60;99899.75;;;;-50
2019/10/19 06:25:07;;;;;;;1.50;1.40;;;;;;;20.51;58.53;99900.55;;;;-50
2019/10/19 06:28:07;;;;;;;1.61;1.51;;;;;;;20.52;58.59;99911.16;;;;-57
2019/10/19 06:31:07;;;;;;;1.80;1.63;;;;;;;20.51;58.60;99918.63;;;;-50
2019/10/19 06:34:07;;;;;;;1.50;1.40;;;;;;;20.51;58.50;99927.02;;;;-50
2019/10/19 06:37:07;;;;;;;1.52;1.42;;;;;;;20.51;58.46;99925.01;;;;-58
2019/10/19 06:40:07;;;;;;;1.52;1.42;;;;;;;20.52;58.47;99933.30;;;;-46
2019/10/19 06:43:07;;;;;;;1.60;1.50;;;;;;;20.52;58.45;99935.98;;;;-58
2019/10/19 06:46:07;;;;;;;1.59;1.49;;;;;;;20.52;58.39;99947.89;;;;-58
2019/10/19 06:49:07;;;;;;;1.50;1.40;;;;;;;20.51;58.42;99938.59;;;;-58
2019/10/19 06:52:07;;;;;;;1.50;1.40;;;;;;;20.51;58.45;99926.19;;;;-57
2019/10/19 06:55:07;;;;;;;2.87;1.57;;;;;;;20.51;58.49;99905.12;;;;-56
2019/10/19 06:58:07;;;;;;;4.25;1.76;;;;;;;20.52;58.44;99881.56;;;;-50
2019/10/19 07:01:07;;;;;;;1.83;1.70;;;;;;;20.53;58.23;99880.69;;;;-45
2019/10/19 07:04:08;;;;;;;1.67;1.57;;;;;;;20.54;58.18;99915.41;;;;-47
2019/10/19 07:07:07;;;;;;;1.92;1.66;;;;;;;20.53;58.08;99905.85;;;;-50
2019/10/19 07:10:07;;;;;;;1.84;1.68;;;;;;;20.56;58.19;99897.69;;;;-50
2019/10/19 07:13:07;;;;;;;1.77;1.59;;;;;;;20.56;58.12;99900.23;;;;-50
2019/10/19 07:16:07;;;;;;;2.18;1.61;;;;;;;20.57;58.18;99908.49;;;;-52
2019/10/19 07:19:07;;;;;;;1.65;1.55;;;;;;;20.59;58.15;99915.50;;;;-54
2019/10/19 07:22:07;;;;;;;1.69;1.59;;;;;;;20.60;58.09;99905.06;;;;-59
2019/10/19 07:25:07;;;;;;;1.71;1.54;;;;;;;20.62;58.07;99906.20;;;;-51
2019/10/19 07:28:07;;;;;;;3.58;1.69;;;;;;;20.63;57.99;99899.52;;;;-46
2019/10/19 07:31:07;;;;;;;3.14;1.74;;;;;;;20.65;58.11;99875.48;;;;-50
2019/10/19 07:34:07;;;;;;;1.58;1.48;;;;;;;20.64;58.10;99861.80;;;;-50
2019/10/19 07:37:07;;;;;;;2.54;1.56;;;;;;;20.65;58.09;99852.77;;;;-50
2019/10/19 07:40:07;;;;;;;1.65;1.55;;;;;;;20.65;58.12;99883.30;;;;-50
2019/10/19 07:43:07;;;;;;;2.05;1.60;;;;;;;20.65;58.07;99885.32;;;;-50
2019/10/19 07:46:07;;;;;;;1.79;1.60;;;;;;;20.66;58.10;99870.58;;;;-51
2019/10/19 07:49:07;;;;;;;1.60;1.50;;;;;;;20.66;58.02;99870.82;;;;-50
2019/10/19 07:52:07;;;;;;;1.61;1.50;;;;;;;20.65;58.03;99865.92;;;;-52
2019/10/19 07:55:07;;;;;;;2.03;1.57;;;;;;;20.65;58.03;99856.19;;;;-60
2019/10/19 07:58:07;;;;;;;2.07;1.56;;;;;;;20.64;57.97;99867.41;;;;-60
2019/10/19 08:01:07;;;;;;;2.35;1.59;;;;;;;20.63;58.01;99872.67;;;;-52
2019/10/19 08:04:07;;;;;;;2.07;1.51;;;;;;;20.63;58.02;99871.33;;;;-50
2019/10/19 08:07:07;;;;;;;1.68;1.58;;;;;;;20.64;57.97;99879.92;;;;-50
2019/10/19 08:10:07;;;;;;;1.67;1.57;;;;;;;20.62;57.97;99877.84;;;;-50
2019/10/19 08:13:07;;;;;;;3.13;1.61;;;;;;;20.62;57.97;99888.02;;;;-52
2019/10/19 08:16:07;;;;;;;1.50;1.40;;;;;;;20.62;58.00;99895.13;;;;-52
2019/10/19 08:19:07;;;;;;;1.52;1.42;;;;;;;20.63;57.95;99892.70;;;;-52
2019/10/19 08:22:07;;;;;;;1.73;1.57;;;;;;;20.62;57.98;99892.01;;;;-52
2019/10/19 08:25:07;;;;;;;1.68;1.50;;;;;;;20.62;57.97;99902.00;;;;-52
2019/10/19 08:28:07;;;;;;;1.57;1.47;;;;;;;20.62;57.90;99903.11;;;;-50
2019/10/19 08:31:07;;;;;;;1.77;1.50;;;;;;;20.62;57.89;99905.42;;;;-50
2019/10/19 08:34:07;;;;;;;1.89;1.40;;;;;;;20.62;57.87;99912.74;;;;-49
2019/10/19 08:37:07;;;;;;;1.55;1.45;;;;;;;20.61;57.92;99912.64;;;;-50
2019/10/19 08:40:07;;;;;;;3.51;1.59;;;;;;;20.61;58.02;99922.38;;;;-48
2019/10/19 08:43:07;;;;;;;3.91;1.83;;;;;;;20.62;58.09;99933.81;;;;-58
2019/10/19 08:46:07;;;;;;;4.43;1.63;;;;;;;20.63;58.08;99938.28;;;;-54
2019/10/19 08:49:07;;;;;;;4.89;1.67;;;;;;;20.65;58.05;99927.09;;;;-50
2019/10/19 08:52:07;;;;;;;6.05;1.59;;;;;;;20.66;58.18;99931.73;;;;-55
2019/10/19 08:55:07;;;;;;;2.65;1.79;;;;;;;20.67;58.18;99939.14;;;;-52
2019/10/19 08:58:07;;;;;;;2.17;1.53;;;;;;;20.67;58.23;99941.98;;;;-50
2019/10/19 09:01:07;;;;;;;4.62;1.71;;;;;;;20.68;58.20;99941.52;;;;-57
2019/10/19 09:04:07;;;;;;;3.56;1.60;;;;;;;20.68;58.18;99928.53;;;;-53
2019/10/19 09:07:07;;;;;;;2.31;1.58;;;;;;;20.68;58.28;99926.42;;;;-50
2019/10/19 09:10:07;;;;;;;4.26;1.70;;;;;;;20.70;58.24;99931.68;;;;-51
2019/10/19 09:13:07;;;;;;;3.59;1.60;;;;;;;20.69;58.30;99928.46;;;;-50
2019/10/19 09:16:07;;;;;;;4.13;1.60;;;;;;;20.71;58.24;99928.86;;;;-49
2019/10/19 09:19:07;;;;;;;2.72;1.50;;;;;;;20.72;58.20;99925.27;;;;-52
2019/10/19 09:22:07;;;;;;;7.00;1.93;;;;;;;20.71;58.22;99921.58;;;;-54
2019/10/19 09:25:07;;;;;;;3.80;1.70;;;;;;;20.69;58.52;99915.70;;;;-53
2019/10/19 09:28:07;;;;;;;5.18;1.60;;;;;;;20.72;58.43;99922.02;;;;-51
2019/10/19 09:31:07;;;;;;;3.31;1.60;;;;;;;20.72;58.38;99930.80;;;;-52
2019/10/19 09:34:08;;;;;;;3.75;1.59;;;;;;;20.72;58.38;99931.51;;;;-45
2019/10/19 09:37:07;;;;;;;3.97;1.66;;;;;;;20.74;58.42;99934.22;;;;-49
2019/10/19 09:40:07;;;;;;;3.18;1.78;;;;;;;20.75;58.50;99936.53;;;;-50
2019/10/19 09:43:07;;;;;;;2.52;1.50;;;;;;;20.74;58.53;99931.06;;;;-57
2019/10/19 09:46:07;;;;;;;2.21;1.58;;;;;;;20.74;58.46;99931.23;;;;-51
2019/10/19 09:49:07;;;;;;;3.43;1.58;;;;;;;20.76;58.50;99934.79;;;;-54
2019/10/19 09:52:07;;;;;;;3.03;1.48;;;;;;;20.77;58.49;99932.64;;;;-51
2019/10/19 09:55:07;;;;;;;3.74;1.56;;;;;;;20.76;58.49;99924.22;;;;-51
2019/10/19 09:58:07;;;;;;;2.05;1.55;;;;;;;20.77;58.46;99921.16;;;;-48
2019/10/19 10:01:07;;;;;;;3.47;1.65;;;;;;;20.76;58.46;99912.84;;;;-49
2019/10/19 10:04:07;;;;;;;4.41;1.73;;;;;;;20.77;58.49;99916.29;;;;-51
2019/10/19 10:07:07;;;;;;;6.68;1.67;;;;;;;20.78;58.45;99918.57;;;;-51
2019/10/19 10:10:07;;;;;;;2.91;1.59;;;;;;;20.78;58.48;99910.62;;;;-51
2019/10/19 10:13:07;;;;;;;4.65;1.77;;;;;;;20.78;58.36;99903.97;;;;-51
2019/10/19 10:16:07;;;;;;;3.09;1.65;;;;;;;20.77;58.42;99894.81;;;;-54
2019/10/19 10:19:07;;;;;;;2.32;1.50;;;;;;;20.77;58.36;99893.64;;;;-53
2019/10/19 10:22:07;;;;;;;2.74;1.66;;;;;;;20.76;58.37;99897.56;;;;-53
2019/10/19 10:25:07;;;;;;;2.21;1.59;;;;;;;20.75;58.32;99889.48;;;;-53
2019/10/19 10:28:07;;;;;;;2.25;1.57;;;;;;;20.75;58.22;99891.23;;;;-53
2019/10/19 10:31:07;;;;;;;1.80;1.58;;;;;;;20.74;58.26;99896.73;;;;-54
2019/10/19 10:34:07;;;;;;;2.25;1.54;;;;;;;20.74;58.20;99899.52;;;;-53
2019/10/19 10:37:07;;;;;;;2.01;1.49;;;;;;;20.74;58.14;99893.61;;;;-53
2019/10/19 10:40:07;;;;;;;2.77;1.58;;;;;;;20.73;58.16;99885.29;;;;-53
2019/10/19 10:43:07;;;;;;;3.24;1.61;;;;;;;20.72;58.11;99887.61;;;;-53
2019/10/19 10:46:07;;;;;;;2.68;1.59;;;;;;;20.72;58.13;99881.47;;;;-53
2019/10/19 10:49:07;;;;;;;2.86;1.60;;;;;;;20.73;58.09;99884.86;;;;-54
2019/10/19 10:52:07;;;;;;;4.03;1.50;;;;;;;20.71;58.07;99884.33;;;;-53
2019/10/19 10:55:07;;;;;;;2.55;1.63;;;;;;;20.71;58.05;99888.69;;;;-58
2019/10/19 10:58:07;;;;;;;2.31;1.53;;;;;;;20.69;58.08;99888.97;;;;-59
2019/10/19 11:01:07;;;;;;;1.77;1.49;;;;;;;20.69;58.09;99894.33;;;;-53
2019/10/19 11:04:07;;;;;;;2.25;1.50;;;;;;;20.68;58.05;99892.69;;;;-58
2019/10/19 11:07:07;;;;;;;2.13;1.53;;;;;;;20.69;57.98;99896.25;;;;-58
2019/10/19 11:10:07;;;;;;;3.47;1.51;;;;;;;20.68;58.13;99888.27;;;;-59
2019/10/19 11:13:07;;;;;;;1.95;1.51;;;;;;;20.69;58.03;99872.19;;;;-48
2019/10/19 11:16:07;;;;;;;2.02;1.43;;;;;;;20.69;58.08;99867.39;;;;-50
2019/10/19 11:19:07;;;;;;;2.93;1.60;;;;;;;20.72;58.02;99864.69;;;;-49
2019/10/19 11:22:07;;;;;;;1.57;1.39;;;;;;;20.72;58.06;99858.25;;;;-51
2019/10/19 11:25:07;;;;;;;2.31;1.33;;;;;;;20.73;58.12;99864.83;;;;-50
2019/10/19 11:28:07;;;;;;;2.10;1.60;;;;;;;20.73;58.12;99858.88;;;;-51
2019/10/19 11:31:07;;;;;;;2.01;1.43;;;;;;;20.74;58.13;99855.45;;;;-61
2019/10/19 11:34:07;;;;;;;3.03;1.47;;;;;;;20.74;58.20;99844.88;;;;-51
2019/10/19 11:37:07;;;;;;;2.19;1.50;;;;;;;20.74;58.21;99844.21;;;;-51
2019/10/19 11:40:07;;;;;;;5.21;1.64;;;;;;;20.73;58.30;99843.34;;;;-46
2019/10/19 11:43:07;;;;;;;3.71;1.58;;;;;;;20.74;58.36;99841.63;;;;-52
2019/10/19 11:46:07;;;;;;;11.42;1.99;;;;;;;20.76;58.51;99832.36;;;;-54
2019/10/19 11:49:07;;;;;;;9.97;1.93;;;;;;;20.76;58.45;99825.58;;;;-51
2019/10/19 11:52:07;;;;;;;7.20;1.73;;;;;;;20.77;58.61;99816.55;;;;-50
2019/10/19 11:55:07;;;;;;;10.31;1.90;;;;;;;20.79;58.64;99809.36;;;;-50
2019/10/19 11:58:07;;;;;;;6.01;1.70;;;;;;;20.80;58.64;99816.49;;;;-56
2019/10/19 12:01:07;;;;;;;3.79;1.72;;;;;;;20.82;58.70;99812.22;;;;-51
2019/10/19 12:04:07;;;;;;;4.57;1.51;;;;;;;20.82;58.68;99811.72;;;;-51
2019/10/19 12:07:07;;;;;;;9.93;1.99;;;;;;;20.82;58.70;99805.21;;;;-58
2019/10/19 12:10:07;;;;;;;3.89;1.65;;;;;;;20.83;58.78;99804.56;;;;-54
2019/10/19 12:13:07;;;;;;;6.43;1.89;;;;;;;20.81;58.64;99799.58;;;;-53
2019/10/19 12:16:07;;;;;;;5.83;1.65;;;;;;;20.80;58.57;99801.22;;;;-53
2019/10/19 12:19:07;;;;;;;3.63;1.67;;;;;;;20.80;58.50;99798.44;;;;-53
2019/10/19 12:22:07;;;;;;;5.03;1.71;;;;;;;20.79;58.48;99796.63;;;;-54
2019/10/19 12:25:07;;;;;;;4.50;1.70;;;;;;;20.78;58.43;99797.95;;;;-53
2019/10/19 12:28:07;;;;;;;3.46;1.72;;;;;;;20.78;58.42;99800.36;;;;-55
2019/10/19 12:31:07;;;;;;;4.62;1.63;;;;;;;20.77;58.30;99781.20;;;;-54
2019/10/19 12:34:07;;;;;;;3.71;1.56;;;;;;;20.77;58.35;99775.33;;;;-53
2019/10/19 12:37:07;;;;;;;3.33;1.67;;;;;;;20.76;58.27;99777.75;;;;-54
2019/10/19 12:40:07;;;;;;;5.46;1.60;;;;;;;20.76;58.27;99781.69;;;;-53
2019/10/19 12:43:07;;;;;;;4.47;1.62;;;;;;;20.74;58.25;99777.09;;;;-53
2019/10/19 12:46:07;;;;;;;3.01;1.49;;;;;;;20.74;58.25;99781.79;;;;-53
2019/10/19 12:49:07;;;;;;;2.13;1.50;;;;;;;20.73;58.25;99777.23;;;;-54
2019/10/19 12:52:07;;;;;;;4.33;1.62;;;;;;;20.72;58.24;99789.35;;;;-54
2019/10/19 12:55:07;;;;;;;3.44;1.70;;;;;;;20.73;58.14;99782.09;;;;-54
2019/10/19 12:58:07;;;;;;;3.21;1.51;;;;;;;20.72;58.22;99784.42;;;;-54
2019/10/19 13:01:07;;;;;;;3.57;1.80;;;;;;;20.70;58.28;99778.83;;;;-53
2019/10/19 13:04:07;;;;;;;3.28;1.40;;;;;;;20.71;58.26;99766.20;;;;-52
2019/10/19 13:07:07;;;;;;;4.08;1.55;;;;;;;20.71;58.27;99753.84;;;;-57
2019/10/19 13:10:07;;;;;;;3.56;1.50;;;;;;;20.71;58.33;99756.70;;;;-59
2019/10/19 13:13:07;;;;;;;2.47;1.50;;;;;;;20.73;58.31;99763.81;;;;-57
2019/10/19 13:16:07;;;;;;;3.83;1.52;;;;;;;20.74;58.50;99759.47;;;;-51
2019/10/19 13:19:07;;;;;;;3.93;1.50;;;;;;;20.75;58.42;99763.02;;;;-52
2019/10/19 13:22:07;;;;;;;2.15;1.41;;;;;;;20.76;58.41;99765.47;;;;-55
2019/10/19 13:25:07;;;;;;;3.87;1.64;;;;;;;20.75;58.45;99763.80;;;;-49
2019/10/19 13:28:06;;;;;;;6.28;1.71;;;;;;;20.74;58.40;99763.06;;;;-51
2019/10/19 13:31:07;;;;;;;4.05;1.35;;;;;;;20.74;58.41;99755.78;;;;-51
2019/10/19 13:34:07;;;;;;;3.21;1.57;;;;;;;20.74;58.32;99740.34;;;;-51
2019/10/19 13:37:07;;;;;;;2.45;1.41;;;;;;;20.74;58.30;99744.27;;;;-51
2019/10/19 13:40:07;;;;;;;2.35;1.57;;;;;;;20.73;58.36;99749.11;;;;-51
2019/10/19 13:43:07;;;;;;;2.62;1.56;;;;;;;20.73;58.34;99748.20;;;;-52
2019/10/19 13:46:07;;;;;;;3.23;1.50;;;;;;;20.73;58.31;99751.96;;;;-50
2019/10/19 13:49:07;;;;;;;1.82;1.40;;;;;;;20.72;58.25;99753.71;;;;-50
2019/10/19 13:52:07;;;;;;;3.09;1.41;;;;;;;20.71;58.26;99756.97;;;;-59
2019/10/19 13:55:07;;;;;;;3.95;1.53;;;;;;;20.70;58.19;99759.36;;;;-50
2019/10/19 13:58:07;;;;;;;2.97;1.58;;;;;;;20.70;58.22;99764.49;;;;-50
2019/10/19 14:01:07;;;;;;;2.09;1.53;;;;;;;20.70;58.18;99756.94;;;;-50
2019/10/19 14:04:07;;;;;;;1.85;1.40;;;;;;;20.69;58.16;99752.95;;;;-50
2019/10/19 14:07:07;;;;;;;3.93;1.57;;;;;;;20.68;58.17;99740.95;;;;-50
2019/10/19 14:10:07;;;;;;;1.59;1.30;;;;;;;20.67;58.15;99729.67;;;;-50
2019/10/19 14:13:07;;;;;;;2.30;1.34;;;;;;;20.68;58.14;99719.14;;;;-50
2019/10/19 14:16:07;;;;;;;2.81;1.39;;;;;;;20.68;58.16;99717.52;;;;-50
2019/10/19 14:19:07;;;;;;;2.93;1.45;;;;;;;20.66;58.10;99711.59;;;;-51
2019/10/19 14:22:07;;;;;;;2.24;1.28;;;;;;;20.66;58.16;99718.14;;;;-50
2019/10/19 14:25:07;;;;;;;3.29;1.47;;;;;;;20.66;58.13;99725.02;;;;-50
2019/10/19 14:28:07;;;;;;;2.21;1.45;;;;;;;20.65;58.16;99728.95;;;;-48
2019/10/19 14:31:07;;;;;;;2.36;1.43;;;;;;;20.65;58.11;99733.55;;;;-51
2019/10/19 14:34:07;;;;;;;1.99;1.43;;;;;;;20.65;58.06;99736.57;;;;-51
2019/10/19 14:37:07;;;;;;;1.86;1.40;;;;;;;20.64;58.13;99733.86;;;;-51
2019/10/19 14:40:07;;;;;;;2.00;1.40;;;;;;;20.63;58.07;99742.14;;;;-50
2019/10/19 14:43:07;;;;;;;2.00;1.45;;;;;;;20.63;58.10;99729.63;;;;-59
2019/10/19 14:46:07;;;;;;;2.64;1.40;;;;;;;20.61;58.13;99725.15;;;;-58
2019/10/19 14:49:07;;;;;;;1.73;1.35;;;;;;;20.61;58.11;99710.28;;;;-59
2019/10/19 14:52:07;;;;;;;1.69;1.29;;;;;;;20.60;58.09;99700.36;;;;-51
2019/10/19 14:55:07;;;;;;;1.63;1.50;;;;;;;20.60;58.13;99706.06;;;;-48
2019/10/19 14:58:07;;;;;;;2.32;1.52;;;;;;;20.59;58.13;99707.64;;;;-49
2019/10/19 15:01:07;;;;;;;2.62;1.49;;;;;;;20.58;58.13;99707.55;;;;-50
2019/10/19 15:04:07;;;;;;;2.56;1.36;;;;;;;20.58;58.08;99701.91;;;;-50
2019/10/19 15:07:07;;;;;;;2.22;1.37;;;;;;;20.58;58.07;99705.37;;;;-47
2019/10/19 15:10:07;;;;;;;1.68;1.26;;;;;;;20.57;58.13;99707.19;;;;-48
2019/10/19 15:13:13;;;;;;;2.86;1.43;;;;;;;20.57;58.13;99708.27;;;;-47
2019/10/19 15:16:07;;;;;;;3.47;1.45;;;;;;;20.57;58.23;99718.93;;;;-50
2019/10/19 15:19:07;;;;;;;2.86;1.31;;;;;;;20.58;58.19;99723.98;;;;-49
2019/10/19 15:22:06;;;;;;;2.00;1.40;;;;;;;20.60;58.20;99728.81;;;;-60
2019/10/19 15:25:07;;;;;;;3.70;1.49;;;;;;;20.61;58.22;99723.30;;;;-50
2019/10/19 15:28:07;;;;;;;1.87;1.41;;;;;;;20.61;58.23;99721.63;;;;-51
2019/10/19 15:31:07;;;;;;;2.50;1.38;;;;;;;20.62;58.22;99715.38;;;;-51
2019/10/19 15:34:07;;;;;;;2.66;1.42;;;;;;;20.63;58.25;99705.74;;;;-51
2019/10/19 15:37:07;;;;;;;2.03;1.45;;;;;;;20.64;58.25;99702.65;;;;-50
2019/10/19 15:40:06;;;;;;;1.73;1.25;;;;;;;20.64;58.26;99705.27;;;;-45
2019/10/19 15:43:07;;;;;;;1.72;1.31;;;;;;;20.65;58.27;99705.19;;;;-45
2019/10/19 15:46:07;;;;;;;1.63;1.30;;;;;;;20.65;58.28;99700.77;;;;-49
2019/10/19 15:49:07;;;;;;;2.41;1.44;;;;;;;20.65;58.28;99687.58;;;;-49
2019/10/19 15:52:07;;;;;;;1.55;1.29;;;;;;;20.66;58.35;99698.78;;;;-49
2019/10/19 15:55:07;;;;;;;1.40;1.30;;;;;;;20.68;58.27;99696.55;;;;-49
2019/10/19 15:58:06;;;;;;;2.56;1.39;;;;;;;20.66;58.32;99699.85;;;;-49
2019/10/19 16:01:07;;;;;;;1.64;1.26;;;;;;;20.67;58.31;99687.23;;;;-56
2019/10/19 16:04:07;;;;;;;1.66;1.35;;;;;;;20.68;58.35;99681.79;;;;-46
2019/10/19 16:07:07;;;;;;;2.40;1.35;;;;;;;20.68;58.37;99681.96;;;;-50
2019/10/19 16:10:07;;;;;;;2.51;1.38;;;;;;;20.67;58.30;99674.21;;;;-49
2019/10/19 16:13:07;;;;;;;1.89;1.33;;;;;;;20.67;58.32;99676.49;;;;-50
2019/10/19 16:16:07;;;;;;;1.71;1.37;;;;;;;20.67;58.34;99685.89;;;;-50
2019/10/19 16:19:07;;;;;;;3.51;1.47;;;;;;;20.68;58.39;99698.91;;;;-49
2019/10/19 16:22:07;;;;;;;1.87;1.30;;;;;;;20.68;58.40;99701.75;;;;-49
2019/10/19 16:25:07;;;;;;;2.65;1.31;;;;;;;20.69;58.39;99714.03;;;;-49
2019/10/19 16:28:07;;;;;;;1.69;1.30;;;;;;;20.68;58.28;99722.55;;;;-51
2019/10/19 16:31:07;;;;;;;2.49;1.30;;;;;;;20.70;58.33;99729.49;;;;-50
2019/10/19 16:34:07;;;;;;;2.13;1.32;;;;;;;20.71;58.36;99736.23;;;;-51
2019/10/19 16:37:07;;;;;;;1.59;1.23;;;;;;;20.71;58.33;99736.50;;;;-59
2019/10/19 16:40:06;;;;;;;1.66;1.43;;;;;;;20.71;58.28;99732.88;;;;-57
2019/10/19 16:43:07;;;;;;;2.16;1.40;;;;;;;20.68;58.37;99735.41;;;;-51
2019/10/19 16:46:07;;;;;;;1.97;1.50;;;;;;;20.66;58.40;99727.47;;;;-51
2019/10/19 16:49:07;;;;;;;2.08;1.30;;;;;;;20.66;58.31;99719.98;;;;-53
2019/10/19 16:52:07;;;;;;;3.17;1.38;;;;;;;20.65;58.32;99716.77;;;;-53
2019/10/19 16:55:07;;;;;;;2.79;1.34;;;;;;;20.63;58.37;99704.56;;;;-53
2019/10/19 16:58:07;;;;;;;2.13;1.40;;;;;;;20.64;58.37;99700.97;;;;-52
2019/10/19 17:01:07;;;;;;;2.24;1.29;;;;;;;20.64;58.32;99696.78;;;;-49
2019/10/19 17:04:07;;;;;;;5.47;1.41;;;;;;;20.64;58.39;99696.78;;;;-56
2019/10/19 17:07:07;;;;;;;3.95;1.42;;;;;;;20.66;58.42;99692.57;;;;-49